Valley Furnace, Pennsylvania
Current Conditions -  °F | °C
As of 8:35 PM on Monday 24 Nov 2014 (Local Time) from KHZL Reporting Station
Broken Clouds Broken Clouds  
Wind Chill: 59°   Ceiling: 8000
Heat Index: 59°   Visibility: 10mi
Dew Point: 52°   Wind: 8mph
Humidity: 77%   Direction: 170°S
Pressure: 29.7"   Gusts: NA
Location:  40.7377°N, 76.1264°W
Report Text: KHZL 250135Z AUTO 17007KT 10SM BKN080 15/11 A2970 RMK AO2
Loading
Personal Weather Stations






























Interactive Weather Map New forecast layout! Learn more

10-Day Weather Forecast

Advertisements
Track Severe Weather on mobile